• Join FlightAware (Why Join?)
  • Login
  • US Flag 
07:06AM EDT


 

Airport Tracker/Info


-or-


 

Live Flight TrackerFlight Track Log ✈ WEW1540 ✈ 07-May-2013 ✈ CYYN - CYKY

Flight Track Log - Related Links

Times and Time Zones

All times are in EDT time to prevent confusion due to time zone crossing. See the WEW1540 flight status page for this flight to view local times or setup timezone preferences in your user account.

Time Position Orientation Groundspeed Altitude Reporting Facility
EDT Latitude Longitude Course Direction KTS MPH feet Rate Location/Type
09:23AM 50.6550 -108.1151 323° Northwest  Level FlightAware Approximate
09:24AM 50.6858 -108.1517 323° Northwest  Level FlightAware Approximate
09:25AM 50.7166 -108.1884 323° Northwest  Level FlightAware Approximate
09:26AM 50.7473 -108.2251 323° Northwest  Level FlightAware Approximate
09:27AM 50.7781 -108.2619 323° Northwest  Level FlightAware Approximate
09:28AM 50.8088 -108.2987 323° Northwest  Level FlightAware Approximate
09:29AM 50.8395 -108.3356 323° Northwest  Level FlightAware Approximate
09:30AM 50.8702 -108.3726 323° Northwest  Level FlightAware Approximate
09:31AM 50.9009 -108.4095 323° Northwest  Level FlightAware Approximate
09:32AM 50.9316 -108.4466 323° Northwest  Level FlightAware Approximate
09:33AM 50.9623 -108.4836 323° Northwest  Level FlightAware Approximate
09:34AM 50.9929 -108.5208 323° Northwest  Level FlightAware Approximate
09:35AM 51.0236 -108.5579 323° Northwest  Level FlightAware Approximate
09:36AM 51.0542 -108.5952 323° Northwest  Level FlightAware Approximate
09:37AM 51.0848 -108.6324 323° Northwest  Level FlightAware Approximate
09:38AM 51.1155 -108.6697 323° Northwest  Level FlightAware Approximate
09:39AM 51.1460 -108.7071 323° Northwest  Level FlightAware Approximate
09:40AM 51.1766 -108.7445 323° Northwest  Level FlightAware Approximate
09:41AM 51.2072 -108.7820 322° Northwest  Level FlightAware Approximate
09:42AM 51.2378 -108.8195 322° Northwest  Level FlightAware Approximate
09:43AM 51.2683 -108.8571 322° Northwest  Level FlightAware Approximate
09:44AM 51.2989 -108.8947 322° Northwest  Level FlightAware Approximate
09:45AM 51.3267 -108.9368 309° West  Level FlightAware Approximate
09:46AM 51.3510 -108.9846 323° Northwest  Level FlightAware Approximate
09:47AM 51.3817 -109.0220 323° Northwest  Level FlightAware Approximate
09:48AM 51.4124 -109.0594 323° Northwest  Level FlightAware Approximate
09:49AM 51.4431 -109.0969 323° Northwest  Level FlightAware Approximate
09:50AM 51.4737 -109.1344 323° Northwest  Level FlightAware Approximate
09:51AM 51.5000 -109.1667 323° Northwest  Level FlightAware Approximate
09:52AM 51.5175 -109.1808 323° Northwest  Level Estimated
09:53AM 51.5175 -109.1808 323° Northwest  Level Estimated
09:54AM 51.5175 -109.1808 323° Northwest  Level Estimated
09:55AM 51.5175 -109.1808 323° Northwest  Level Estimated
09:56AM 51.5175 -109.1808 323° Northwest  Level Estimated
09:57AM 51.5175 -109.1808 323° Northwest  Level Estimated
09:58AM 51.5175 -109.1808 323° Northwest  Level Estimated
09:59AM 51.5175 -109.1808 323° Northwest  Level Estimated
10:00AM 51.5175 -109.1808 323° Northwest  Level Estimated
10:01AM 51.5175 -109.1808 323° Northwest  Level Estimated
10:02AM 51.5175 -109.1808 323° Northwest  Level Estimated
10:03AM 51.5175 -109.1808 323° Northwest  Level Estimated
10:04AM 51.5175 -109.1808 323° Northwest  Level Estimated
10:05AM 51.5175 -109.1808 323° Northwest  Level Estimated
10:06AM 51.5175 -109.1808 323° Northwest  Level Estimated